Time;durP1;ratioP1;P1;durP2;ratioP2;P2;SDS_P1;SDS_P2;PMS_P1;PMS_P2;Temp;Humidity;BMP_temperature;BMP_pressure;BME280_temperature;BME280_humidity;BME280_pressure;Samples;Min_cycle;Max_cycle;Signal;HPM_P1;HPM_P2
2022/04/14 00:01:33;;;;;;;2.30;1.20;;;;;;;;;;5111695;28;20062;-65
2022/04/14 00:03:59;;;;;;;2.67;1.83;;;;;;;;;;5111995;28;20020;-58
2022/04/14 00:06:25;;;;;;;3.22;1.42;;;;;;;;;;5112398;28;20032;-58
2022/04/14 00:08:52;;;;;;;3.45;1.85;;;;;;;;;;5111280;28;20055;-61
2022/04/14 00:11:18;;;;;;;1.88;1.30;;;;;;;;;;5112165;28;20099;-58
2022/04/14 00:13:44;;;;;;;3.45;2.05;;;;;;;;;;5111289;28;20026;-58
2022/04/14 00:16:10;;;;;;;2.80;1.90;;;;;;;;;;5111981;28;20035;-60
2022/04/14 00:18:36;;;;;;;1.67;1.27;;;;;;;;;;5112239;28;20376;-61
2022/04/14 00:21:02;;;;;;;2.22;1.40;;;;;;;;;;5113238;28;20031;-58
2022/04/14 00:23:28;;;;;;;1.85;1.30;;;;;;;;;;5113005;28;20028;-58
2022/04/14 00:25:54;;;;;;;2.22;1.40;;;;;;;;;;5112002;28;20101;-58
2022/04/14 00:28:20;;;;;;;3.35;1.60;;;;;;;;;;5113592;28;20397;-58
2022/04/14 00:30:46;;;;;;;2.75;1.55;;;;;;;;;;5112443;28;20464;-58
2022/04/14 00:33:12;;;;;;;1.77;1.50;;;;;;;;;;5112884;28;20049;-58
2022/04/14 00:35:38;;;;;;;3.35;1.35;;;;;;;;;;5111889;28;20016;-58
2022/04/14 00:38:04;;;;;;;3.53;1.80;;;;;;;;;;5113284;28;20115;-57
2022/04/14 00:40:30;;;;;;;2.53;1.50;;;;;;;;;;5112711;28;20027;-58
2022/04/14 00:42:56;;;;;;;2.05;1.27;;;;;;;;;;5112133;28;20073;-58
2022/04/14 00:45:22;;;;;;;3.30;2.03;;;;;;;;;;5112085;28;20075;-56
2022/04/14 00:47:49;;;;;;;3.15;1.40;;;;;;;;;;5112288;28;20054;-58
2022/04/14 00:50:15;;;;;;;4.00;1.35;;;;;;;;;;5112333;27;20376;-58
2022/04/14 00:52:45;;;;;;;4.43;2.05;;;;;;;;;;5111688;28;20023;-58
2022/04/14 00:55:11;;;;;;;3.45;1.48;;;;;;;;;;5112751;28;20484;-58
2022/04/14 00:57:37;;;;;;;1.83;1.40;;;;;;;;;;5111842;28;20120;-59
2022/04/14 01:00:05;;;;;;;1.88;1.48;;;;;;;;;;5113144;28;20057;-58
2022/04/14 01:02:31;;;;;;;3.30;1.48;;;;;;;;;;5112704;28;20548;-56
2022/04/14 01:04:57;;;;;;;4.00;1.60;;;;;;;;;;5112008;28;20579;-58
2022/04/14 01:07:24;;;;;;;2.55;1.55;;;;;;;;;;5112633;28;20038;-58
2022/04/14 01:09:50;;;;;;;2.05;1.50;;;;;;;;;;5096842;28;20415;-58
2022/04/14 01:12:16;;;;;;;4.85;2.10;;;;;;;;;;5112291;28;20108;-58
2022/04/14 01:14:42;;;;;;;1.67;1.25;;;;;;;;;;5111863;28;20046;-58
2022/04/14 01:17:09;;;;;;;1.73;1.23;;;;;;;;;;5112427;28;20426;-56
2022/04/14 01:19:36;;;;;;;2.75;1.27;;;;;;;;;;5111739;28;20043;-64
2022/04/14 01:22:02;;;;;;;2.88;1.30;;;;;;;;;;5111764;28;20464;-58
2022/04/14 01:24:29;;;;;;;2.22;1.30;;;;;;;;;;5112437;28;20041;-58
2022/04/14 01:26:55;;;;;;;1.75;1.33;;;;;;;;;;5111523;28;20099;-58
2022/04/14 01:29:22;;;;;;;2.47;1.33;;;;;;;;;;5112302;28;20097;-58
2022/04/14 01:31:48;;;;;;;2.45;1.40;;;;;;;;;;5111401;28;20436;-58
2022/04/14 01:34:14;;;;;;;2.20;1.30;;;;;;;;;;5112219;28;20090;-58
2022/04/14 01:36:40;;;;;;;3.97;1.42;;;;;;;;;;5111279;28;20102;-58
2022/04/14 01:39:08;;;;;;;1.63;1.45;;;;;;;;;;5112373;28;20451;-55
2022/04/14 01:41:34;;;;;;;2.15;1.70;;;;;;;;;;5111796;28;20098;-60
2022/04/14 01:44:00;;;;;;;3.03;1.48;;;;;;;;;;5110105;28;20055;-57
2022/04/14 01:46:26;;;;;;;2.55;1.67;;;;;;;;;;5112056;28;20016;-57
2022/04/14 01:48:52;;;;;;;2.97;1.20;;;;;;;;;;5111578;28;20106;-57
2022/04/14 01:51:19;;;;;;;2.10;1.20;;;;;;;;;;5111705;28;20096;-57
2022/04/14 01:53:45;;;;;;;2.72;1.50;;;;;;;;;;5111451;28;20051;-57
2022/04/14 01:56:11;;;;;;;1.80;1.40;;;;;;;;;;5111654;28;20039;-57
2022/04/14 01:58:37;;;;;;;2.17;1.40;;;;;;;;;;5111377;28;20107;-63
2022/04/14 02:01:03;;;;;;;4.53;2.15;;;;;;;;;;5112082;28;20096;-57
2022/04/14 02:03:29;;;;;;;2.55;1.50;;;;;;;;;;5111780;28;20028;-57
2022/04/14 02:05:55;;;;;;;4.03;1.80;;;;;;;;;;5114242;28;20607;-57
2022/04/14 02:08:21;;;;;;;2.17;1.77;;;;;;;;;;5115980;28;20116;-55
2022/04/14 02:10:47;;;;;;;1.92;1.30;;;;;;;;;;5115220;28;20050;-57
2022/04/14 02:13:13;;;;;;;2.03;1.35;;;;;;;;;;5115630;28;20027;-57
2022/04/14 02:15:39;;;;;;;3.20;2.20;;;;;;;;;;5114846;28;20024;-64
2022/04/14 02:18:05;;;;;;;2.80;1.88;;;;;;;;;;5115893;28;20044;-57
2022/04/14 02:20:31;;;;;;;2.88;1.85;;;;;;;;;;5115441;28;20031;-57
2022/04/14 02:22:57;;;;;;;3.10;1.52;;;;;;;;;;5114832;28;20170;-57
2022/04/14 02:25:23;;;;;;;1.42;1.00;;;;;;;;;;5115788;28;20107;-56
2022/04/14 02:27:49;;;;;;;2.25;1.50;;;;;;;;;;5114605;28;20078;-60
2022/04/14 02:30:15;;;;;;;2.00;1.48;;;;;;;;;;5109876;28;20473;-57
2022/04/14 02:32:41;;;;;;;3.90;1.98;;;;;;;;;;5100543;28;20039;-58
2022/04/14 02:35:08;;;;;;;5.25;1.60;;;;;;;;;;5115553;27;20051;-57
2022/04/14 02:37:34;;;;;;;1.75;1.05;;;;;;;;;;5115034;28;20483;-57
2022/04/14 02:40:00;;;;;;;3.60;2.20;;;;;;;;;;5114335;27;20020;-57
2022/04/14 02:42:26;;;;;;;2.40;1.70;;;;;;;;;;5115238;28;20031;-57
2022/04/14 02:44:52;;;;;;;1.58;1.00;;;;;;;;;;5114332;28;20078;-57
2022/04/14 02:47:18;;;;;;;1.92;1.35;;;;;;;;;;5115361;28;20027;-57
2022/04/14 02:49:44;;;;;;;2.33;1.50;;;;;;;;;;5114269;28;20077;-57
2022/04/14 02:52:10;;;;;;;3.05;1.40;;;;;;;;;;5114707;28;20019;-57
2022/04/14 02:54:37;;;;;;;3.33;1.98;;;;;;;;;;5114306;28;20020;-57
2022/04/14 02:57:07;;;;;;;2.97;1.77;;;;;;;;;;5115496;28;20034;-56
2022/04/14 02:59:33;;;;;;;1.75;1.50;;;;;;;;;;5115091;28;20066;-55
2022/04/14 03:01:59;;;;;;;3.38;1.60;;;;;;;;;;5114281;28;20092;-55
2022/04/14 03:04:26;;;;;;;2.88;1.80;;;;;;;;;;5114121;28;20035;-55
2022/04/14 03:06:52;;;;;;;2.25;1.58;;;;;;;;;;5114478;28;20032;-57
2022/04/14 03:09:18;;;;;;;4.05;1.63;;;;;;;;;;5114788;28;20027;-56
2022/04/14 03:11:44;;;;;;;2.63;1.88;;;;;;;;;;5114053;28;20372;-57
2022/04/14 03:14:10;;;;;;;3.03;1.88;;;;;;;;;;5114198;28;20027;-55
2022/04/14 03:16:36;;;;;;;2.03;1.40;;;;;;;;;;5115105;27;20470;-55
2022/04/14 03:19:02;;;;;;;2.95;1.50;;;;;;;;;;5114028;28;20088;-55
2022/04/14 03:21:29;;;;;;;2.78;1.45;;;;;;;;;;5114579;28;20023;-55
2022/04/14 03:23:54;;;;;;;3.08;1.85;;;;;;;;;;5113512;27;20119;-56
2022/04/14 03:26:20;;;;;;;1.67;1.38;;;;;;;;;;5114879;28;20098;-55
2022/04/14 03:28:46;;;;;;;3.15;1.70;;;;;;;;;;5113651;28;20028;-55
2022/04/14 03:31:12;;;;;;;2.60;1.55;;;;;;;;;;5114682;28;20024;-55
2022/04/14 03:33:38;;;;;;;2.72;1.50;;;;;;;;;;5113970;28;20020;-64
2022/04/14 03:36:05;;;;;;;2.20;1.63;;;;;;;;;;5114396;28;20024;-55
2022/04/14 03:38:31;;;;;;;2.50;1.25;;;;;;;;;;5114508;28;20059;-55
2022/04/14 03:40:59;;;;;;;1.90;1.40;;;;;;;;;;5113562;28;20089;-55
2022/04/14 03:43:25;;;;;;;2.38;1.70;;;;;;;;;;5114066;28;20012;-54
2022/04/14 03:45:51;;;;;;;3.05;1.30;;;;;;;;;;5113155;28;20059;-60
2022/04/14 03:48:17;;;;;;;2.08;1.35;;;;;;;;;;5114095;28;20076;-54
2022/04/14 03:50:43;;;;;;;2.65;1.67;;;;;;;;;;5113182;28;20024;-56
2022/04/14 03:53:09;;;;;;;3.53;1.70;;;;;;;;;;5113860;28;20027;-55
2022/04/14 03:55:35;;;;;;;3.25;1.63;;;;;;;;;;5114237;28;20028;-56
2022/04/14 03:58:01;;;;;;;1.90;1.40;;;;;;;;;;5113342;28;20024;-57
2022/04/14 04:00:27;;;;;;;1.92;1.17;;;;;;;;;;5113781;28;20099;-55
2022/04/14 04:02:53;;;;;;;3.25;1.50;;;;;;;;;;5113287;28;20095;-57
2022/04/14 04:05:19;;;;;;;1.52;1.30;;;;;;;;;;5102937;28;20077;-57
2022/04/14 04:07:45;;;;;;;2.70;1.38;;;;;;;;;;5112795;28;20058;-57
2022/04/14 04:10:12;;;;;;;2.85;1.63;;;;;;;;;;5095273;28;20023;-61
2022/04/14 04:12:38;;;;;;;2.95;1.60;;;;;;;;;;5093397;28;20020;-55
2022/04/14 04:15:04;;;;;;;2.50;1.40;;;;;;;;;;5094966;28;20034;-55
2022/04/14 04:17:30;;;;;;;4.32;1.52;;;;;;;;;;5113441;28;20026;-55
2022/04/14 04:19:56;;;;;;;5.82;1.73;;;;;;;;;;5112283;28;20028;-55
2022/04/14 04:22:22;;;;;;;2.70;1.52;;;;;;;;;;5113516;28;20031;-57
2022/04/14 04:24:48;;;;;;;2.70;1.50;;;;;;;;;;5112494;27;20039;-57
2022/04/14 04:27:14;;;;;;;2.03;1.45;;;;;;;;;;5112899;28;20031;-55
2022/04/14 04:29:40;;;;;;;2.08;1.42;;;;;;;;;;5112936;28;20028;-64
2022/04/14 04:32:06;;;;;;;4.30;1.58;;;;;;;;;;5112650;28;20476;-60
2022/04/14 04:34:32;;;;;;;3.45;1.30;;;;;;;;;;5112745;28;20027;-55
2022/04/14 04:36:58;;;;;;;2.15;1.50;;;;;;;;;;5112513;28;20031;-55
2022/04/14 04:39:24;;;;;;;4.40;1.60;;;;;;;;;;5111703;28;20031;-55
2022/04/14 04:41:50;;;;;;;3.50;1.95;;;;;;;;;;5112452;28;20027;-55
2022/04/14 04:44:16;;;;;;;1.88;1.33;;;;;;;;;;5104171;28;20048;-55
2022/04/14 04:46:42;;;;;;;1.80;1.40;;;;;;;;;;5112287;28;20483;-64
2022/04/14 04:49:08;;;;;;;2.60;1.30;;;;;;;;;;5112824;28;20062;-58
2022/04/14 04:51:34;;;;;;;2.03;1.63;;;;;;;;;;5112930;28;20449;-57
2022/04/14 04:54:00;;;;;;;2.17;1.27;;;;;;;;;;5111708;28;20019;-57
2022/04/14 04:56:26;;;;;;;2.33;1.38;;;;;;;;;;5112858;28;20469;-57
2022/04/14 04:58:52;;;;;;;2.85;1.73;;;;;;;;;;5111951;28;20058;-57
2022/04/14 05:01:18;;;;;;;3.67;1.50;;;;;;;;;;5112294;28;20350;-54
2022/04/14 05:03:44;;;;;;;3.15;1.33;;;;;;;;;;5112286;28;20027;-63
2022/04/14 05:06:10;;;;;;;2.30;1.48;;;;;;;;;;5112603;28;20027;-58
2022/04/14 05:08:36;;;;;;;1.67;1.23;;;;;;;;;;5112694;28;20466;-58
2022/04/14 05:11:02;;;;;;;2.22;1.55;;;;;;;;;;5111775;28;20034;-57
2022/04/14 05:13:28;;;;;;;2.75;1.60;;;;;;;;;;5112484;28;20038;-56
2022/04/14 05:15:54;;;;;;;2.00;1.30;;;;;;;;;;5111788;28;20019;-55
2022/04/14 05:18:20;;;;;;;2.42;1.58;;;;;;;;;;5112395;28;20031;-55
2022/04/14 05:20:46;;;;;;;2.78;1.50;;;;;;;;;;5111328;28;20094;-58
2022/04/14 05:23:12;;;;;;;2.22;1.58;;;;;;;;;;5112334;28;20023;-60
2022/04/14 05:25:42;;;;;;;3.42;1.92;;;;;;;;;;5110843;28;20053;-57
2022/04/14 05:28:08;;;;;;;4.38;3.15;;;;;;;;;;5111883;28;20110;-56
2022/04/14 05:30:34;;;;;;;10.43;5.25;;;;;;;;;;5112347;28;20027;-54
2022/04/14 05:33:00;;;;;;;5.57;3.78;;;;;;;;;;5111597;28;20073;-56
2022/04/14 05:35:26;;;;;;;8.77;3.97;;;;;;;;;;5111839;28;20511;-59
2022/04/14 05:37:52;;;;;;;8.43;3.83;;;;;;;;;;5111615;28;20024;-56
2022/04/14 05:40:18;;;;;;;10.85;5.18;;;;;;;;;;5114191;28;20028;-54
2022/04/14 05:42:46;;;;;;;13.27;4.72;;;;;;;;;;5116242;28;20035;-63
2022/04/14 05:45:13;;;;;;;13.27;5.68;;;;;;;;;;5115449;28;20051;-58
2022/04/14 05:47:39;;;;;;;14.80;5.07;;;;;;;;;;5115865;28;20031;-58
2022/04/14 05:50:05;;;;;;;14.07;4.75;;;;;;;;;;5115480;27;20090;-60
2022/04/14 05:52:31;;;;;;;9.52;5.10;;;;;;;;;;5115927;28;20031;-58
2022/04/14 05:55:04;;;;;;;7.40;4.63;;;;;;;;;;5115394;28;20032;-60
2022/04/14 05:57:30;;;;;;;12.20;4.97;;;;;;;;;;5116500;28;20081;-60
2022/04/14 05:59:56;;;;;;;12.82;4.82;;;;;;;;;;5115485;28;20027;-57
2022/04/14 06:02:22;;;;;;;10.18;5.68;;;;;;;;;;5115875;28;20130;-56
2022/04/14 06:04:48;;;;;;;12.10;6.55;;;;;;;;;;5114822;28;20099;-58
2022/04/14 06:07:14;;;;;;;8.85;5.25;;;;;;;;;;5116162;28;20161;-54
2022/04/14 06:09:40;;;;;;;12.07;4.82;;;;;;;;;;5115897;28;20073;-56
2022/04/14 06:12:07;;;;;;;12.00;4.82;;;;;;;;;;5113164;28;20059;-55
2022/04/14 06:14:33;;;;;;;10.95;5.13;;;;;;;;;;5116779;28;20031;-57
2022/04/14 06:16:59;;;;;;;8.73;4.18;;;;;;;;;;5115461;28;20055;-57
2022/04/14 06:19:25;;;;;;;7.95;4.90;;;;;;;;;;5114818;28;20400;-54
2022/04/14 06:21:51;;;;;;;11.65;5.68;;;;;;;;;;5114838;28;20020;-54
2022/04/14 06:24:17;;;;;;;10.38;5.50;;;;;;;;;;5115605;28;20484;-52
2022/04/14 06:26:43;;;;;;;9.23;5.07;;;;;;;;;;5115396;28;20035;-52
2022/04/14 06:29:10;;;;;;;8.77;5.25;;;;;;;;;;5115062;28;20081;-50
2022/04/14 06:31:37;;;;;;;9.65;6.05;;;;;;;;;;5115484;28;20059;-51
2022/04/14 06:34:03;;;;;;;10.00;5.65;;;;;;;;;;5114378;28;20039;-52
2022/04/14 06:36:29;;;;;;;8.50;4.35;;;;;;;;;;5115233;28;20053;-52
2022/04/14 06:38:55;;;;;;;10.63;4.35;;;;;;;;;;5114976;28;20472;-52
2022/04/14 06:41:21;;;;;;;8.32;4.10;;;;;;;;;;5114959;28;20020;-53
2022/04/14 06:43:49;;;;;;;9.30;4.30;;;;;;;;;;5114058;28;20067;-60
2022/04/14 06:46:19;;;;;;;6.43;2.92;;;;;;;;;;5115196;28;20032;-52
2022/04/14 06:48:45;;;;;;;6.93;3.10;;;;;;;;;;5115967;28;20039;-61
2022/04/14 06:51:11;;;;;;;8.05;3.58;;;;;;;;;;5114789;28;20030;-61
2022/04/14 06:53:38;;;;;;;5.93;3.15;;;;;;;;;;5114578;28;20474;-59
2022/04/14 06:56:05;;;;;;;6.50;3.15;;;;;;;;;;5114229;28;20023;-56
2022/04/14 06:58:31;;;;;;;7.55;3.22;;;;;;;;;;5114865;28;20436;-59
2022/04/14 07:00:57;;;;;;;6.78;2.58;;;;;;;;;;5112467;28;20051;-58
2022/04/14 07:03:26;;;;;;;6.88;2.92;;;;;;;;;;5114558;28;20483;-60
2022/04/14 07:05:56;;;;;;;7.78;2.72;;;;;;;;;;5113689;28;20080;-50
2022/04/14 07:08:24;;;;;;;7.93;3.15;;;;;;;;;;5114389;28;20023;-56
2022/04/14 07:10:50;;;;;;;6.28;2.53;;;;;;;;;;5112736;28;20411;-59
2022/04/14 07:13:17;;;;;;;7.95;4.10;;;;;;;;;;5114647;28;20019;-55
2022/04/14 07:15:43;;;;;;;12.20;7.47;;;;;;;;;;5115147;28;20415;-54
2022/04/14 07:18:09;;;;;;;14.07;6.97;;;;;;;;;;5114255;28;20027;-55
2022/04/14 07:20:35;;;;;;;11.20;7.53;;;;;;;;;;5113271;28;20024;-55
2022/04/14 07:23:03;;;;;;;14.75;8.40;;;;;;;;;;5115908;28;20041;-55
2022/04/14 07:25:33;;;;;;;13.73;8.00;;;;;;;;;;5113640;28;20020;-55
2022/04/14 07:28:00;;;;;;;13.75;8.43;;;;;;;;;;5112343;28;20097;-54
2022/04/14 07:30:26;;;;;;;15.57;9.02;;;;;;;;;;5098732;28;20484;-54
2022/04/14 07:32:53;;;;;;;14.23;8.20;;;;;;;;;;5113141;28;20103;-52
2022/04/14 07:35:21;;;;;;;14.07;7.95;;;;;;;;;;5114283;28;20502;-52
2022/04/14 07:37:48;;;;;;;18.95;9.80;;;;;;;;;;5114353;28;20050;-60
2022/04/14 07:40:14;;;;;;;15.43;9.38;;;;;;;;;;5114063;28;20023;-50
2022/04/14 07:42:41;;;;;;;13.73;8.68;;;;;;;;;;5113678;28;20024;-52
2022/04/14 07:45:08;;;;;;;15.57;9.45;;;;;;;;;;5113020;28;20043;-50
2022/04/14 07:47:35;;;;;;;14.50;7.82;;;;;;;;;;5113578;28;20031;-53
2022/04/14 07:50:01;;;;;;;17.45;8.35;;;;;;;;;;5112778;28;20035;-55
2022/04/14 07:52:27;;;;;;;12.27;7.20;;;;;;;;;;5113286;28;20030;-54
2022/04/14 07:54:53;;;;;;;10.75;6.47;;;;;;;;;;5112731;28;20028;-53
2022/04/14 07:57:19;;;;;;;16.05;8.38;;;;;;;;;;5115405;28;20085;-54
2022/04/14 07:59:45;;;;;;;9.43;5.80;;;;;;;;;;5116075;28;20526;-56
2022/04/14 08:02:11;;;;;;;9.20;5.50;;;;;;;;;;5111792;28;20020;-54
2022/04/14 08:04:38;;;;;;;11.52;4.97;;;;;;;;;;5113361;28;20024;-57
2022/04/14 08:07:04;;;;;;;12.48;5.95;;;;;;;;;;5111908;28;20116;-57
2022/04/14 08:09:30;;;;;;;10.07;5.18;;;;;;;;;;5094218;28;20487;-56
2022/04/14 08:11:56;;;;;;;6.43;4.15;;;;;;;;;;5112248;28;20110;-58
2022/04/14 08:14:22;;;;;;;9.43;5.25;;;;;;;;;;5112453;28;20059;-57
2022/04/14 08:16:48;;;;;;;7.30;4.90;;;;;;;;;;5112469;28;20055;-62
2022/04/14 08:19:14;;;;;;;10.57;4.05;;;;;;;;;;5112946;28;20039;-54
2022/04/14 08:21:40;;;;;;;7.50;4.38;;;;;;;;;;5112985;28;20078;-58
2022/04/14 08:24:07;;;;;;;9.35;4.13;;;;;;;;;;5112546;28;20035;-60
2022/04/14 08:26:33;;;;;;;7.20;4.40;;;;;;;;;;5113524;28;20084;-58
2022/04/14 08:29:00;;;;;;;8.32;4.35;;;;;;;;;;5112242;28;20408;-59
2022/04/14 08:31:26;;;;;;;6.43;3.75;;;;;;;;;;5113193;28;20028;-59
2022/04/14 08:33:52;;;;;;;7.65;4.18;;;;;;;;;;5112342;28;20026;-59
2022/04/14 08:36:20;;;;;;;10.30;4.00;;;;;;;;;;5113209;28;20055;-58
2022/04/14 08:38:46;;;;;;;7.97;3.88;;;;;;;;;;5112889;28;20027;-58
2022/04/14 08:41:13;;;;;;;11.77;4.22;;;;;;;;;;5112208;28;20255;-58
2022/04/14 08:43:43;;;;;;;9.73;4.88;;;;;;;;;;5112863;28;20028;-59
2022/04/14 08:46:10;;;;;;;8.82;4.05;;;;;;;;;;5112682;28;20015;-59
2022/04/14 08:48:37;;;;;;;10.07;3.67;;;;;;;;;;5112585;28;20035;-59
2022/04/14 08:51:05;;;;;;;8.48;3.75;;;;;;;;;;5111542;28;20088;-59
2022/04/14 08:53:32;;;;;;;13.40;3.65;;;;;;;;;;5112282;28;20058;-58
2022/04/14 08:55:58;;;;;;;10.80;3.97;;;;;;;;;;5111765;28;20464;-60
2022/04/14 08:58:26;;;;;;;12.90;5.53;;;;;;;;;;5112237;28;20039;-59
2022/04/14 09:00:54;;;;;;;10.18;5.00;;;;;;;;;;5111917;28;20020;-61
2022/04/14 09:03:20;;;;;;;13.23;4.15;;;;;;;;;;5110083;28;20403;-60
2022/04/14 09:05:46;;;;;;;6.43;4.20;;;;;;;;;;5112320;28;20018;-60
2022/04/14 09:08:12;;;;;;;11.23;4.03;;;;;;;;;;5110927;28;20028;-58
2022/04/14 09:10:39;;;;;;;8.15;3.60;;;;;;;;;;5120816;27;20042;-58
2022/04/14 09:13:05;;;;;;;7.38;4.43;;;;;;;;;;5128347;27;20076;-59
2022/04/14 09:15:31;;;;;;;8.52;4.07;;;;;;;;;;5113182;28;20057;-58
2022/04/14 09:17:57;;;;;;;6.57;3.03;;;;;;;;;;5111348;28;20058;-59
2022/04/14 09:20:34;;;;;;;10.88;5.00;;;;;;;;;;5099591;28;20023;-58
2022/04/14 09:23:18;;;;;;;16.17;7.18;;;;;;;;;;5111042;28;20031;-60
2022/04/14 09:25:44;;;;;;;13.23;7.15;;;;;;;;;;5112434;28;20034;-56
2022/04/14 09:28:11;;;;;;;9.70;6.20;;;;;;;;;;5108336;28;20035;-58
2022/04/14 09:30:38;;;;;;;10.60;4.28;;;;;;;;;;5111629;28;20118;-58
2022/04/14 09:33:04;;;;;;;8.45;4.90;;;;;;;;;;5110834;28;20052;-57
2022/04/14 09:35:31;;;;;;;7.75;4.55;;;;;;;;;;5112434;28;20529;-57
2022/04/14 09:38:02;;;;;;;11.48;6.13;;;;;;;;;;5111205;28;20020;-58
2022/04/14 09:40:33;;;;;;;9.60;5.80;;;;;;;;;;5112073;28;20471;-58
2022/04/14 09:43:00;;;;;;;10.90;5.77;;;;;;;;;;5093092;28;20027;-58
2022/04/14 09:45:28;;;;;;;7.75;5.72;;;;;;;;;;5111332;28;20036;-58
2022/04/14 09:47:54;;;;;;;10.73;5.20;;;;;;;;;;5111127;28;20032;-64
2022/04/14 09:50:40;;;;;;;11.43;4.78;;;;;;;;;;5112064;28;20411;-58
2022/04/14 09:53:07;;;;;;;10.02;5.07;;;;;;;;;;5110867;28;20421;-59
2022/04/14 09:55:37;;;;;;;7.18;3.95;;;;;;;;;;5112213;28;20141;-57
2022/04/14 09:58:15;;;;;;;8.45;5.50;;;;;;;;;;5110801;28;20481;-60
2022/04/14 10:00:47;;;;;;;10.10;5.70;;;;;;;;;;5112008;28;20066;-58
2022/04/14 10:03:13;;;;;;;;;;;;;;;;;;5111483;28;20123;-61
2022/04/14 10:05:39;;;;;;;9.77;4.60;;;;;;;;;;5111508;28;19949;-61
2022/04/14 10:08:08;;;;;;;10.98;5.45;;;;;;;;;;5109992;28;20030;-58
2022/04/14 10:10:39;;;;;;;12.80;5.85;;;;;;;;;;5102610;28;20028;-58
2022/04/14 10:13:06;;;;;;;12.77;5.53;;;;;;;;;;5110632;28;20138;-59
2022/04/14 10:15:36;;;;;;;9.80;4.80;;;;;;;;;;5111814;28;20020;-58
2022/04/14 10:18:07;;;;;;;8.15;4.80;;;;;;;;;;5110761;28;20419;-59
2022/04/14 10:20:33;;;;;;;8.73;5.07;;;;;;;;;;5111395;28;20050;-58
2022/04/14 10:23:00;;;;;;;9.20;4.60;;;;;;;;;;5110542;28;20024;-59
2022/04/14 10:25:27;;;;;;;9.50;4.93;;;;;;;;;;5111500;28;20387;-59
2022/04/14 10:27:56;;;;;;;8.45;4.22;;;;;;;;;;5115319;28;20371;-64
2022/04/14 10:30:23;;;;;;;7.57;4.55;;;;;;;;;;5115738;28;20034;-59
2022/04/14 10:32:49;;;;;;;6.50;3.85;;;;;;;;;;5115822;28;20055;-59
2022/04/14 10:35:15;;;;;;;7.95;4.10;;;;;;;;;;5114788;28;20024;-59
2022/04/14 10:37:48;;;;;;;10.25;4.95;;;;;;;;;;5115624;28;20031;-59
2022/04/14 10:40:15;;;;;;;7.95;4.72;;;;;;;;;;5114586;28;20546;-59
2022/04/14 10:42:47;;;;;;;6.50;3.80;;;;;;;;;;5115230;28;20066;-60
2022/04/14 10:45:17;;;;;;;8.10;3.85;;;;;;;;;;5113669;28;20044;-59
2022/04/14 10:47:43;;;;;;;7.68;5.10;;;;;;;;;;5115188;28;20099;-59
2022/04/14 10:50:22;;;;;;;7.03;4.43;;;;;;;;;;5114039;28;20107;-59
2022/04/14 10:53:01;;;;;;;11.13;5.07;;;;;;;;;;5104456;28;20027;-58
2022/04/14 10:55:40;;;;;;;5.95;3.65;;;;;;;;;;5114507;28;20027;-58
2022/04/14 10:58:07;;;;;;;6.22;3.90;;;;;;;;;;5114170;28;20028;-59
2022/04/14 11:00:33;;;;;;;8.43;5.40;;;;;;;;;;5114963;28;20512;-58
2022/04/14 11:03:03;;;;;;;10.15;4.82;;;;;;;;;;5113851;28;20414;-59
2022/04/14 11:05:42;;;;;;;10.18;4.53;;;;;;;;;;5114342;28;20020;-58
2022/04/14 11:08:27;;;;;;;11.40;6.10;;;;;;;;;;5113486;28;20062;-57
2022/04/14 11:11:05;;;;;;;7.70;5.50;;;;;;;;;;5112214;28;20055;-63
2022/04/14 11:13:50;;;;;;;8.68;4.82;;;;;;;;;;5114780;28;20060;-59
2022/04/14 11:16:35;;;;;;;12.45;4.32;;;;;;;;;;5109864;27;20024;-59
2022/04/14 11:19:19;;;;;;;7.00;4.60;;;;;;;;;;5111478;27;20027;-59
2022/04/14 11:22:12;;;;;;;8.02;3.38;;;;;;;;;;5113601;28;20031;-59
2022/04/14 11:24:41;;;;;;;7.82;3.25;;;;;;;;;;5102221;28;20027;-60
2022/04/14 11:27:11;;;;;;;8.07;3.85;;;;;;;;;;5113700;28;20027;-58
2022/04/14 11:29:37;;;;;;;8.45;3.10;;;;;;;;;;5114388;28;20024;-59
2022/04/14 11:32:04;;;;;;;10.70;3.40;;;;;;;;;;5113025;28;20023;-59
2022/04/14 11:34:33;;;;;;;4.82;2.70;;;;;;;;;;5098964;27;20058;-58
2022/04/14 11:37:01;;;;;;;5.78;2.83;;;;;;;;;;5114425;28;20465;-58
2022/04/14 11:39:27;;;;;;;5.60;3.03;;;;;;;;;;5115608;28;20016;-58
2022/04/14 11:41:55;;;;;;;8.13;2.83;;;;;;;;;;5113723;28;20024;-58
2022/04/14 11:44:32;;;;;;;7.43;2.90;;;;;;;;;;5112718;28;20078;-57
2022/04/14 11:47:01;;;;;;;6.18;2.45;;;;;;;;;;5113396;28;20026;-62
2022/04/14 11:49:28;;;;;;;5.45;2.35;;;;;;;;;;5114074;28;20055;-55
2022/04/14 11:51:58;;;;;;;3.15;1.90;;;;;;;;;;5114136;28;20028;-56
2022/04/14 11:54:27;;;;;;;6.13;2.10;;;;;;;;;;5112218;28;20020;-57
2022/04/14 11:56:54;;;;;;;6.70;2.90;;;;;;;;;;5113805;28;20418;-59
2022/04/14 11:59:29;;;;;;;3.80;2.20;;;;;;;;;;5113301;28;20057;-62
2022/04/14 12:01:55;;;;;;;6.93;2.55;;;;;;;;;;5114056;28;20476;-58
2022/04/14 12:04:21;;;;;;;5.85;2.00;;;;;;;;;;5112999;28;20087;-59
2022/04/14 12:06:56;;;;;;;6.15;2.17;;;;;;;;;;5113115;28;20047;-58
2022/04/14 12:09:24;;;;;;;7.15;2.92;;;;;;;;;;5106410;28;20528;-63
2022/04/14 12:11:51;;;;;;;5.65;2.30;;;;;;;;;;5093429;28;20028;-58
2022/04/14 12:14:17;;;;;;;7.05;2.45;;;;;;;;;;5094765;28;20023;-58
2022/04/14 12:16:50;;;;;;;8.07;2.53;;;;;;;;;;5108346;28;20039;-60
2022/04/14 12:19:17;;;;;;;7.18;2.28;;;;;;;;;;5112407;28;20032;-49
2022/04/14 12:21:43;;;;;;;6.82;2.40;;;;;;;;;;5113845;28;20024;-49
2022/04/14 12:24:09;;;;;;;10.65;2.42;;;;;;;;;;5112484;28;20092;-49
2022/04/14 12:26:37;;;;;;;6.85;2.33;;;;;;;;;;5113376;28;20468;-50
2022/04/14 12:29:08;;;;;;;6.10;2.70;;;;;;;;;;5112808;28;20032;-46
2022/04/14 12:31:34;;;;;;;6.68;3.05;;;;;;;;;;5113746;28;20024;-46
2022/04/14 12:34:00;;;;;;;6.50;3.10;;;;;;;;;;5112611;28;20015;-55
2022/04/14 12:36:37;;;;;;;6.07;2.90;;;;;;;;;;5095254;28;20414;-50
2022/04/14 12:39:17;;;;;;;7.63;3.65;;;;;;;;;;5112322;28;20027;-49
2022/04/14 12:41:45;;;;;;;6.30;3.35;;;;;;;;;;5113499;28;20016;-46
2022/04/14 12:44:16;;;;;;;6.15;3.78;;;;;;;;;;5112369;28;20047;-46
2022/04/14 12:46:42;;;;;;;6.45;3.00;;;;;;;;;;5113435;28;20020;-46
2022/04/14 12:49:12;;;;;;;8.20;3.20;;;;;;;;;;5111884;28;20067;-46
2022/04/14 12:51:40;;;;;;;6.28;3.25;;;;;;;;;;5113061;28;20028;-47
2022/04/14 12:54:07;;;;;;;5.53;3.10;;;;;;;;;;5112348;28;20019;-47
2022/04/14 12:56:34;;;;;;;8.93;3.38;;;;;;;;;;5113234;28;20038;-46
2022/04/14 12:59:12;;;;;;;7.05;2.78;;;;;;;;;;5112760;28;20031;-55
2022/04/14 13:01:51;;;;;;;5.95;3.05;;;;;;;;;;5113282;28;20058;-47
2022/04/14 13:04:18;;;;;;;5.60;2.80;;;;;;;;;;5112234;28;20029;-47
2022/04/14 13:07:00;;;;;;;5.82;2.63;;;;;;;;;;5113051;28;20499;-47
2022/04/14 13:09:26;;;;;;;;;;;;;;;;;;5112544;28;20484;-46
2022/04/14 13:11:52;;;;;;;4.63;2.40;;;;;;;;;;5113228;28;19915;-46
2022/04/14 13:14:31;;;;;;;5.10;3.10;;;;;;;;;;5112056;28;20015;-46
2022/04/14 13:16:58;;;;;;;5.10;2.67;;;;;;;;;;5112855;28;20028;-46
2022/04/14 13:19:25;;;;;;;5.18;2.58;;;;;;;;;;5112052;28;20040;-47
2022/04/14 13:21:51;;;;;;;4.80;3.00;;;;;;;;;;5112510;28;20465;-47
2022/04/14 13:24:17;;;;;;;6.03;3.10;;;;;;;;;;5111852;28;20024;-47
2022/04/14 13:26:44;;;;;;;5.35;2.78;;;;;;;;;;5112421;28;20031;-46
2022/04/14 13:29:10;;;;;;;5.22;2.92;;;;;;;;;;5111818;28;20046;-46
2022/04/14 13:31:37;;;;;;;9.20;3.20;;;;;;;;;;5094464;28;20027;-47
2022/04/14 13:34:03;;;;;;;5.85;3.17;;;;;;;;;;5112374;28;20421;-54
2022/04/14 13:36:29;;;;;;;4.38;2.53;;;;;;;;;;5112580;28;20111;-50
2022/04/14 13:38:55;;;;;;;5.60;2.90;;;;;;;;;;5112577;28;20023;-47
2022/04/14 13:41:22;;;;;;;5.93;3.28;;;;;;;;;;5111567;28;20632;-50
2022/04/14 13:43:48;;;;;;;6.18;3.15;;;;;;;;;;5112304;28;20054;-49
2022/04/14 13:46:14;;;;;;;4.25;3.15;;;;;;;;;;5111826;28;20019;-48
2022/04/14 13:48:40;;;;;;;7.43;4.25;;;;;;;;;;5112602;28;20027;-46
2022/04/14 13:51:06;;;;;;;5.40;3.13;;;;;;;;;;5112005;28;20415;-57
2022/04/14 13:53:32;;;;;;;6.22;3.35;;;;;;;;;;5112406;28;20042;-49
2022/04/14 13:55:58;;;;;;;6.72;3.88;;;;;;;;;;5112144;28;20473;-47
2022/04/14 13:58:24;;;;;;;3.35;2.45;;;;;;;;;;5111659;28;20031;-50
2022/04/14 14:00:50;;;;;;;6.45;3.15;;;;;;;;;;5113752;28;20046;-50
2022/04/14 14:03:17;;;;;;;5.55;3.25;;;;;;;;;;5115737;28;20027;-49
2022/04/14 14:05:43;;;;;;;6.25;3.30;;;;;;;;;;5116499;28;20028;-49
2022/04/14 14:08:09;;;;;;;5.07;3.05;;;;;;;;;;5115328;28;20024;-54
2022/04/14 14:10:37;;;;;;;7.45;3.72;;;;;;;;;;5116259;28;20031;-48
2022/04/14 14:13:03;;;;;;;8.40;3.65;;;;;;;;;;5116193;28;20027;-55
2022/04/14 14:15:29;;;;;;;6.97;3.78;;;;;;;;;;5115832;28;20341;-49
2022/04/14 14:17:55;;;;;;;5.93;4.90;;;;;;;;;;5115993;28;20031;-47
2022/04/14 14:20:21;;;;;;;6.82;3.10;;;;;;;;;;5115433;28;20046;-47
2022/04/14 14:22:48;;;;;;;7.65;4.30;;;;;;;;;;5097879;28;20031;-48
2022/04/14 14:25:14;;;;;;;6.75;3.70;;;;;;;;;;5115215;28;20110;-47
2022/04/14 14:27:41;;;;;;;6.32;4.18;;;;;;;;;;5098014;28;20028;-46
2022/04/14 14:30:07;;;;;;;8.77;4.10;;;;;;;;;;5115475;28;20111;-53
2022/04/14 14:32:34;;;;;;;6.70;3.58;;;;;;;;;;5115940;28;20035;-46
2022/04/14 14:35:00;;;;;;;7.55;3.63;;;;;;;;;;5116067;28;20539;-46
2022/04/14 14:37:27;;;;;;;9.93;4.28;;;;;;;;;;5114823;28;20020;-46
2022/04/14 14:39:54;;;;;;;5.13;3.55;;;;;;;;;;5115837;28;20028;-47
2022/04/14 14:42:20;;;;;;;6.45;3.42;;;;;;;;;;5114999;28;20077;-47